Mc Indoe Falls, Vermont
Current Conditions -  °F | °C
As of 1:15 AM on Wednesday 26 Nov 2014 (Local Time) from KCDA Reporting Station
Overcast Overcast  
Wind Chill:   Ceiling: 3400
Heat Index:   Visibility: 10mi
Dew Point: -4°   Wind: 8mph
Humidity: 60%   Direction: 240°WSW
Pressure: 30.11"   Gusts: NA
Location:  44.2588°N, 72.0585°W
Report Text: KCDA 260615Z AUTO 24007KT 10SM OVC034 03/M04 A3011 RMK AO2 T00311041
Loading
Personal Weather Stations






























Interactive Weather Map New forecast layout! Learn more

10-Day Weather Forecast

Advertisements
Track Severe Weather on mobile